sensor_id;sensor_type;location;lat;lon;timestamp;pressure;altitude;pressure_sealevel;temperature
76895;BMP280;65855;42.030;13.078;2023-06-14T00:01:32;93283.41;;;14.74
76895;BMP280;65855;42.030;13.078;2023-06-14T00:04:00;93282.03;;;14.77
76895;BMP280;65855;42.030;13.078;2023-06-14T00:06:28;93278.38;;;14.66
76895;BMP280;65855;42.030;13.078;2023-06-14T00:08:53;93273.59;;;14.73
76895;BMP280;65855;42.030;13.078;2023-06-14T00:11:19;93266.72;;;14.73
76895;BMP280;65855;42.030;13.078;2023-06-14T00:13:45;93270.91;;;14.69
76895;BMP280;65855;42.030;13.078;2023-06-14T00:16:10;93272.88;;;14.64
76895;BMP280;65855;42.030;13.078;2023-06-14T00:18:36;93273.03;;;14.67
76895;BMP280;65855;42.030;13.078;2023-06-14T00:21:02;93266.22;;;14.80
76895;BMP280;65855;42.030;13.078;2023-06-14T00:23:29;93262.00;;;14.84
76895;BMP280;65855;42.030;13.078;2023-06-14T00:25:54;93261.88;;;14.80
76895;BMP280;65855;42.030;13.078;2023-06-14T00:28:20;93260.91;;;14.73
76895;BMP280;65855;42.030;13.078;2023-06-14T00:30:45;93256.81;;;14.60
76895;BMP280;65855;42.030;13.078;2023-06-14T00:33:12;93256.03;;;14.60
76895;BMP280;65855;42.030;13.078;2023-06-14T00:35:37;93259.25;;;14.48
76895;BMP280;65855;42.030;13.078;2023-06-14T00:38:03;93263.44;;;14.44
76895;BMP280;65855;42.030;13.078;2023-06-14T00:40:29;93259.81;;;14.54
76895;BMP280;65855;42.030;13.078;2023-06-14T00:42:54;93263.88;;;14.46
76895;BMP280;65855;42.030;13.078;2023-06-14T00:45:19;93258.75;;;14.35
76895;BMP280;65855;42.030;13.078;2023-06-14T00:47:46;93255.00;;;14.32
76895;BMP280;65855;42.030;13.078;2023-06-14T00:50:12;93258.88;;;14.38
76895;BMP280;65855;42.030;13.078;2023-06-14T00:52:39;93252.13;;;14.42
76895;BMP280;65855;42.030;13.078;2023-06-14T00:55:05;93258.44;;;14.36
76895;BMP280;65855;42.030;13.078;2023-06-14T00:57:31;93251.66;;;14.20
76895;BMP280;65855;42.030;13.078;2023-06-14T00:59:57;93249.84;;;14.29
76895;BMP280;65855;42.030;13.078;2023-06-14T01:02:22;93249.22;;;14.32
76895;BMP280;65855;42.030;13.078;2023-06-14T01:04:50;93254.69;;;14.34
76895;BMP280;65855;42.030;13.078;2023-06-14T01:07:33;93249.09;;;14.28
76895;BMP280;65855;42.030;13.078;2023-06-14T01:10:12;93244.50;;;14.22
76895;BMP280;65855;42.030;13.078;2023-06-14T01:13:02;93248.25;;;14.16
76895;BMP280;65855;42.030;13.078;2023-06-14T01:15:31;93249.91;;;14.12
76895;BMP280;65855;42.030;13.078;2023-06-14T01:17:56;93242.47;;;14.07
76895;BMP280;65855;42.030;13.078;2023-06-14T01:20:28;93245.31;;;14.06
76895;BMP280;65855;42.030;13.078;2023-06-14T01:22:53;93243.53;;;14.06
76895;BMP280;65855;42.030;13.078;2023-06-14T01:25:19;93248.63;;;13.98
76895;BMP280;65855;42.030;13.078;2023-06-14T01:28:08;93253.56;;;13.94
76895;BMP280;65855;42.030;13.078;2023-06-14T01:30:37;93245.53;;;13.93
76895;BMP280;65855;42.030;13.078;2023-06-14T01:33:03;93242.41;;;13.95
76895;BMP280;65855;42.030;13.078;2023-06-14T01:35:30;93244.94;;;13.95
76895;BMP280;65855;42.030;13.078;2023-06-14T01:37:56;93235.66;;;13.99
76895;BMP280;65855;42.030;13.078;2023-06-14T01:40:22;93238.34;;;13.94
76895;BMP280;65855;42.030;13.078;2023-06-14T01:42:50;93240.00;;;13.82
76895;BMP280;65855;42.030;13.078;2023-06-14T01:45:17;93238.13;;;13.71
76895;BMP280;65855;42.030;13.078;2023-06-14T01:47:44;93227.13;;;13.67
76895;BMP280;65855;42.030;13.078;2023-06-14T01:50:10;93233.53;;;13.65
76895;BMP280;65855;42.030;13.078;2023-06-14T01:52:37;93224.59;;;13.67
76895;BMP280;65855;42.030;13.078;2023-06-14T01:55:04;93220.88;;;13.65
76895;BMP280;65855;42.030;13.078;2023-06-14T01:57:30;93224.59;;;13.67
76895;BMP280;65855;42.030;13.078;2023-06-14T01:59:55;93223.25;;;13.61
76895;BMP280;65855;42.030;13.078;2023-06-14T02:02:20;93231.91;;;13.60
76895;BMP280;65855;42.030;13.078;2023-06-14T02:04:46;93227.47;;;13.57
76895;BMP280;65855;42.030;13.078;2023-06-14T02:07:12;93226.56;;;13.53
76895;BMP280;65855;42.030;13.078;2023-06-14T02:09:38;93224.66;;;13.50
76895;BMP280;65855;42.030;13.078;2023-06-14T02:12:04;93225.25;;;13.47
76895;BMP280;65855;42.030;13.078;2023-06-14T02:14:30;93226.88;;;13.44
76895;BMP280;65855;42.030;13.078;2023-06-14T02:16:55;93224.97;;;13.41
76895;BMP280;65855;42.030;13.078;2023-06-14T02:19:20;93219.00;;;13.37
76895;BMP280;65855;42.030;13.078;2023-06-14T02:21:46;93215.31;;;13.34
76895;BMP280;65855;42.030;13.078;2023-06-14T02:24:13;93218.56;;;13.35
76895;BMP280;65855;42.030;13.078;2023-06-14T02:26:38;93210.94;;;13.43
76895;BMP280;65855;42.030;13.078;2023-06-14T02:29:07;93217.34;;;13.49
76895;BMP280;65855;42.030;13.078;2023-06-14T02:31:36;93211.09;;;13.46
76895;BMP280;65855;42.030;13.078;2023-06-14T02:34:02;93209.31;;;13.47
76895;BMP280;65855;42.030;13.078;2023-06-14T02:36:27;93202.44;;;13.47
76895;BMP280;65855;42.030;13.078;2023-06-14T02:38:55;93206.47;;;13.48
76895;BMP280;65855;42.030;13.078;2023-06-14T02:41:23;93203.06;;;13.45
76895;BMP280;65855;42.030;13.078;2023-06-14T02:43:49;93206.06;;;13.30
76895;BMP280;65855;42.030;13.078;2023-06-14T02:46:14;93212.22;;;13.21
76895;BMP280;65855;42.030;13.078;2023-06-14T02:48:40;93211.00;;;13.26
76895;BMP280;65855;42.030;13.078;2023-06-14T02:51:05;93202.09;;;13.21
76895;BMP280;65855;42.030;13.078;2023-06-14T02:53:31;93206.09;;;13.21
76895;BMP280;65855;42.030;13.078;2023-06-14T02:55:56;93201.38;;;13.03
76895;BMP280;65855;42.030;13.078;2023-06-14T02:58:21;93210.78;;;12.86
76895;BMP280;65855;42.030;13.078;2023-06-14T03:00:50;93199.31;;;12.89
76895;BMP280;65855;42.030;13.078;2023-06-14T03:03:17;93199.59;;;12.79
76895;BMP280;65855;42.030;13.078;2023-06-14T03:05:44;93202.59;;;12.81
76895;BMP280;65855;42.030;13.078;2023-06-14T03:08:15;93212.56;;;12.94
76895;BMP280;65855;42.030;13.078;2023-06-14T03:10:48;93207.19;;;12.79
76895;BMP280;65855;42.030;13.078;2023-06-14T03:13:17;93214.47;;;12.89
76895;BMP280;65855;42.030;13.078;2023-06-14T03:15:46;93214.16;;;12.65
76895;BMP280;65855;42.030;13.078;2023-06-14T03:18:15;93217.44;;;12.66
76895;BMP280;65855;42.030;13.078;2023-06-14T03:20:40;93223.97;;;12.67
76895;BMP280;65855;42.030;13.078;2023-06-14T03:23:08;93227.72;;;12.77
76895;BMP280;65855;42.030;13.078;2023-06-14T03:25:34;93237.66;;;12.66
76895;BMP280;65855;42.030;13.078;2023-06-14T03:28:01;93232.31;;;12.50
76895;BMP280;65855;42.030;13.078;2023-06-14T03:30:27;93245.56;;;12.48
76895;BMP280;65855;42.030;13.078;2023-06-14T03:32:53;93234.22;;;12.53
76895;BMP280;65855;42.030;13.078;2023-06-14T03:35:21;93233.66;;;12.56
76895;BMP280;65855;42.030;13.078;2023-06-14T03:37:46;93241.22;;;12.40
76895;BMP280;65855;42.030;13.078;2023-06-14T03:40:18;93241.63;;;12.33
76895;BMP280;65855;42.030;13.078;2023-06-14T03:42:44;93246.56;;;12.30
76895;BMP280;65855;42.030;13.078;2023-06-14T03:45:09;93238.94;;;12.22
76895;BMP280;65855;42.030;13.078;2023-06-14T03:47:35;93250.56;;;12.31
76895;BMP280;65855;42.030;13.078;2023-06-14T03:50:02;93243.25;;;12.21
76895;BMP280;65855;42.030;13.078;2023-06-14T03:52:27;93249.03;;;12.13
76895;BMP280;65855;42.030;13.078;2023-06-14T03:54:53;93253.38;;;12.21
76895;BMP280;65855;42.030;13.078;2023-06-14T03:57:19;93261.13;;;12.33
76895;BMP280;65855;42.030;13.078;2023-06-14T03:59:45;93256.34;;;12.23
76895;BMP280;65855;42.030;13.078;2023-06-14T04:02:10;93266.47;;;12.40
76895;BMP280;65855;42.030;13.078;2023-06-14T04:04:37;93270.84;;;12.48
76895;BMP280;65855;42.030;13.078;2023-06-14T04:07:03;93276.03;;;12.43
76895;BMP280;65855;42.030;13.078;2023-06-14T04:09:31;93284.22;;;12.56
76895;BMP280;65855;42.030;13.078;2023-06-14T04:11:56;93272.22;;;12.70
76895;BMP280;65855;42.030;13.078;2023-06-14T04:14:22;93282.00;;;12.63
76895;BMP280;65855;42.030;13.078;2023-06-14T04:16:48;93279.78;;;12.62
76895;BMP280;65855;42.030;13.078;2023-06-14T04:19:15;93272.09;;;12.20
76895;BMP280;65855;42.030;13.078;2023-06-14T04:21:40;93273.44;;;12.26
76895;BMP280;65855;42.030;13.078;2023-06-14T04:24:06;93279.31;;;12.51
76895;BMP280;65855;42.030;13.078;2023-06-14T04:26:32;93270.69;;;12.61
76895;BMP280;65855;42.030;13.078;2023-06-14T04:28:59;93276.59;;;12.40
76895;BMP280;65855;42.030;13.078;2023-06-14T04:31:28;93275.28;;;12.59
76895;BMP280;65855;42.030;13.078;2023-06-14T04:33:55;93270.69;;;12.69
76895;BMP280;65855;42.030;13.078;2023-06-14T04:36:21;93269.63;;;12.53
76895;BMP280;65855;42.030;13.078;2023-06-14T04:38:47;93272.22;;;12.70
76895;BMP280;65855;42.030;13.078;2023-06-14T04:41:14;93255.22;;;12.62
76895;BMP280;65855;42.030;13.078;2023-06-14T04:43:41;93259.94;;;12.39
76895;BMP280;65855;42.030;13.078;2023-06-14T04:46:08;93262.22;;;12.48
76895;BMP280;65855;42.030;13.078;2023-06-14T04:48:39;93254.38;;;12.75
76895;BMP280;65855;42.030;13.078;2023-06-14T04:51:07;93254.38;;;12.75
76895;BMP280;65855;42.030;13.078;2023-06-14T04:53:32;93245.59;;;12.89
76895;BMP280;65855;42.030;13.078;2023-06-14T04:55:58;93240.81;;;13.13
76895;BMP280;65855;42.030;13.078;2023-06-14T04:58:23;93244.47;;;13.85
76895;BMP280;65855;42.030;13.078;2023-06-14T05:00:48;93240.06;;;14.59
76895;BMP280;65855;42.030;13.078;2023-06-14T05:03:14;93238.41;;;14.63
76895;BMP280;65855;42.030;13.078;2023-06-14T05:05:40;93251.25;;;14.87
76895;BMP280;65855;42.030;13.078;2023-06-14T05:08:06;93241.50;;;15.09
76895;BMP280;65855;42.030;13.078;2023-06-14T05:10:31;93241.16;;;15.30
76895;BMP280;65855;42.030;13.078;2023-06-14T05:12:59;93235.00;;;15.51
76895;BMP280;65855;42.030;13.078;2023-06-14T05:15:25;93236.94;;;15.78
76895;BMP280;65855;42.030;13.078;2023-06-14T05:17:52;93229.31;;;15.89
76895;BMP280;65855;42.030;13.078;2023-06-14T05:20:21;93230.00;;;16.10
76895;BMP280;65855;42.030;13.078;2023-06-14T05:22:48;93239.00;;;15.52
76895;BMP280;65855;42.030;13.078;2023-06-14T05:25:17;93240.56;;;15.33
76895;BMP280;65855;42.030;13.078;2023-06-14T05:27:42;93234.28;;;15.86
76895;BMP280;65855;42.030;13.078;2023-06-14T05:30:08;93229.66;;;16.23
76895;BMP280;65855;42.030;13.078;2023-06-14T05:32:34;93236.34;;;16.78
76895;BMP280;65855;42.030;13.078;2023-06-14T05:34:59;93229.97;;;16.84
76895;BMP280;65855;42.030;13.078;2023-06-14T05:37:25;93228.09;;;17.20
76895;BMP280;65855;42.030;13.078;2023-06-14T05:39:50;93233.38;;;17.27
76895;BMP280;65855;42.030;13.078;2023-06-14T05:42:16;93227.41;;;16.96
76895;BMP280;65855;42.030;13.078;2023-06-14T05:44:41;93227.13;;;17.81
76895;BMP280;65855;42.030;13.078;2023-06-14T05:47:07;93223.94;;;18.15
76895;BMP280;65855;42.030;13.078;2023-06-14T05:49:32;93224.31;;;17.71
76895;BMP280;65855;42.030;13.078;2023-06-14T05:51:57;93223.63;;;17.44
76895;BMP280;65855;42.030;13.078;2023-06-14T05:54:23;93235.03;;;16.57
76895;BMP280;65855;42.030;13.078;2023-06-14T05:56:48;93233.22;;;17.08
76895;BMP280;65855;42.030;13.078;2023-06-14T05:59:14;93245.75;;;17.01
76895;BMP280;65855;42.030;13.078;2023-06-14T06:01:39;93241.19;;;17.76
76895;BMP280;65855;42.030;13.078;2023-06-14T06:04:07;93241.19;;;17.76
76895;BMP280;65855;42.030;13.078;2023-06-14T06:06:32;93248.16;;;17.79
76895;BMP280;65855;42.030;13.078;2023-06-14T06:08:58;93243.44;;;18.23
76895;BMP280;65855;42.030;13.078;2023-06-14T06:11:23;93236.31;;;18.80
76895;BMP280;65855;42.030;13.078;2023-06-14T06:13:49;93229.09;;;19.20
76895;BMP280;65855;42.030;13.078;2023-06-14T06:16:15;93222.75;;;19.73
76895;BMP280;65855;42.030;13.078;2023-06-14T06:18:41;93231.75;;;20.08
76895;BMP280;65855;42.030;13.078;2023-06-14T06:21:06;93227.66;;;20.51
76895;BMP280;65855;42.030;13.078;2023-06-14T06:23:32;93220.94;;;20.65
76895;BMP280;65855;42.030;13.078;2023-06-14T06:25:57;93227.09;;;21.18
76895;BMP280;65855;42.030;13.078;2023-06-14T06:28:22;93218.16;;;21.06
76895;BMP280;65855;42.030;13.078;2023-06-14T06:30:48;93222.44;;;21.27
76895;BMP280;65855;42.030;13.078;2023-06-14T06:33:13;93228.53;;;20.87
76895;BMP280;65855;42.030;13.078;2023-06-14T06:35:39;93213.31;;;21.30
76895;BMP280;65855;42.030;13.078;2023-06-14T06:38:05;93207.66;;;21.18
76895;BMP280;65855;42.030;13.078;2023-06-14T06:40:30;93208.69;;;21.42
76895;BMP280;65855;42.030;13.078;2023-06-14T06:42:56;93218.03;;;21.60
76895;BMP280;65855;42.030;13.078;2023-06-14T06:45:21;93210.53;;;22.20
76895;BMP280;65855;42.030;13.078;2023-06-14T06:47:48;93215.81;;;21.59
76895;BMP280;65855;42.030;13.078;2023-06-14T06:50:14;93221.94;;;22.29
76895;BMP280;65855;42.030;13.078;2023-06-14T06:52:39;93226.34;;;22.25
76895;BMP280;65855;42.030;13.078;2023-06-14T06:55:05;93218.53;;;22.64
76895;BMP280;65855;42.030;13.078;2023-06-14T06:57:31;93234.06;;;22.25
76895;BMP280;65855;42.030;13.078;2023-06-14T06:59:56;93237.22;;;22.62
76895;BMP280;65855;42.030;13.078;2023-06-14T07:02:22;93232.06;;;23.25
76895;BMP280;65855;42.030;13.078;2023-06-14T07:04:47;93236.25;;;23.57
76895;BMP280;65855;42.030;13.078;2023-06-14T07:07:13;93240.94;;;22.64
76895;BMP280;65855;42.030;13.078;2023-06-14T07:09:38;93240.44;;;23.08
76895;BMP280;65855;42.030;13.078;2023-06-14T07:12:04;93238.03;;;23.46
76895;BMP280;65855;42.030;13.078;2023-06-14T07:14:30;93230.41;;;23.84
76895;BMP280;65855;42.030;13.078;2023-06-14T07:16:55;93224.69;;;23.20
76895;BMP280;65855;42.030;13.078;2023-06-14T07:19:21;93215.28;;;23.55
76895;BMP280;65855;42.030;13.078;2023-06-14T07:21:46;93222.25;;;23.58
76895;BMP280;65855;42.030;13.078;2023-06-14T07:24:13;93232.69;;;24.19
76895;BMP280;65855;42.030;13.078;2023-06-14T07:26:39;93230.81;;;24.58
76895;BMP280;65855;42.030;13.078;2023-06-14T07:29:04;93220.75;;;23.46
76895;BMP280;65855;42.030;13.078;2023-06-14T07:31:30;93217.09;;;23.51
76895;BMP280;65855;42.030;13.078;2023-06-14T07:33:55;93223.81;;;24.00
76895;BMP280;65855;42.030;13.078;2023-06-14T07:36:21;93217.59;;;24.21
76895;BMP280;65855;42.030;13.078;2023-06-14T07:38:47;93215.72;;;24.11
76895;BMP280;65855;42.030;13.078;2023-06-14T07:41:12;93223.53;;;23.04
76895;BMP280;65855;42.030;13.078;2023-06-14T07:43:38;93216.81;;;21.87
76895;BMP280;65855;42.030;13.078;2023-06-14T07:46:04;93222.53;;;22.06
76895;BMP280;65855;42.030;13.078;2023-06-14T07:48:29;93228.00;;;23.17
76895;BMP280;65855;42.030;13.078;2023-06-14T07:50:55;93224.94;;;22.94
76895;BMP280;65855;42.030;13.078;2023-06-14T07:53:21;93228.91;;;23.79
76895;BMP280;65855;42.030;13.078;2023-06-14T07:55:46;93226.38;;;24.00
76895;BMP280;65855;42.030;13.078;2023-06-14T07:58:12;93219.44;;;24.14
76895;BMP280;65855;42.030;13.078;2023-06-14T08:00:38;93221.91;;;23.62
76895;BMP280;65855;42.030;13.078;2023-06-14T08:03:03;93230.78;;;24.92
76895;BMP280;65855;42.030;13.078;2023-06-14T08:05:29;93231.72;;;25.39
76895;BMP280;65855;42.030;13.078;2023-06-14T08:07:55;93226.38;;;24.55
76895;BMP280;65855;42.030;13.078;2023-06-14T08:10:21;93234.47;;;24.84
76895;BMP280;65855;42.030;13.078;2023-06-14T08:12:46;93227.31;;;25.39
76895;BMP280;65855;42.030;13.078;2023-06-14T08:15:13;93218.38;;;25.57
76895;BMP280;65855;42.030;13.078;2023-06-14T08:17:39;93214.53;;;25.86
76895;BMP280;65855;42.030;13.078;2023-06-14T08:20:05;93218.72;;;26.20
76895;BMP280;65855;42.030;13.078;2023-06-14T08:22:31;93215.84;;;26.94
76895;BMP280;65855;42.030;13.078;2023-06-14T08:24:59;93210.75;;;26.87
76895;BMP280;65855;42.030;13.078;2023-06-14T08:27:26;93201.94;;;25.88
76895;BMP280;65855;42.030;13.078;2023-06-14T08:29:51;93210.91;;;25.73
76895;BMP280;65855;42.030;13.078;2023-06-14T08:32:17;93204.72;;;26.64
76895;BMP280;65855;42.030;13.078;2023-06-14T08:34:42;93212.59;;;26.47
76895;BMP280;65855;42.030;13.078;2023-06-14T08:37:08;93217.03;;;26.86
76895;BMP280;65855;42.030;13.078;2023-06-14T08:39:33;93215.88;;;27.56
76895;BMP280;65855;42.030;13.078;2023-06-14T08:42:01;93222.31;;;28.26
76895;BMP280;65855;42.030;13.078;2023-06-14T08:44:27;93223.69;;;27.82
76895;BMP280;65855;42.030;13.078;2023-06-14T08:46:57;93220.63;;;28.84
76895;BMP280;65855;42.030;13.078;2023-06-14T08:49:25;93219.63;;;28.78
76895;BMP280;65855;42.030;13.078;2023-06-14T08:51:58;93218.63;;;29.14
76895;BMP280;65855;42.030;13.078;2023-06-14T08:54:28;93219.53;;;28.62
76895;BMP280;65855;42.030;13.078;2023-06-14T08:56:56;93219.53;;;28.62
76895;BMP280;65855;42.030;13.078;2023-06-14T08:59:27;93219.22;;;28.79
76895;BMP280;65855;42.030;13.078;2023-06-14T09:01:54;93222.69;;;28.92
76895;BMP280;65855;42.030;13.078;2023-06-14T09:04:23;93230.97;;;28.65
76895;BMP280;65855;42.030;13.078;2023-06-14T09:06:53;93223.22;;;28.61
76895;BMP280;65855;42.030;13.078;2023-06-14T09:09:20;93227.66;;;29.06
76895;BMP280;65855;42.030;13.078;2023-06-14T09:11:46;93227.69;;;26.95
76895;BMP280;65855;42.030;13.078;2023-06-14T09:14:11;93234.13;;;24.75
76895;BMP280;65855;42.030;13.078;2023-06-14T09:16:36;93237.22;;;23.28
76895;BMP280;65855;42.030;13.078;2023-06-14T09:19:02;93235.94;;;23.89
76895;BMP280;65855;42.030;13.078;2023-06-14T09:21:27;93237.06;;;24.50
76895;BMP280;65855;42.030;13.078;2023-06-14T09:23:53;93230.44;;;24.01
76895;BMP280;65855;42.030;13.078;2023-06-14T09:26:19;93239.91;;;25.13
76895;BMP280;65855;42.030;13.078;2023-06-14T09:28:49;93242.97;;;24.16
76895;BMP280;65855;42.030;13.078;2023-06-14T09:31:20;93236.66;;;23.89
76895;BMP280;65855;42.030;13.078;2023-06-14T09:33:49;93237.81;;;23.01
76895;BMP280;65855;42.030;13.078;2023-06-14T09:36:25;93236.69;;;24.07
76895;BMP280;65855;42.030;13.078;2023-06-14T09:38:55;93234.72;;;23.42
76895;BMP280;65855;42.030;13.078;2023-06-14T09:41:30;93225.22;;;23.66
76895;BMP280;65855;42.030;13.078;2023-06-14T09:43:58;93226.03;;;24.53
76895;BMP280;65855;42.030;13.078;2023-06-14T09:46:26;93214.91;;;24.93
76895;BMP280;65855;42.030;13.078;2023-06-14T09:48:52;93226.16;;;25.51
76895;BMP280;65855;42.030;13.078;2023-06-14T09:51:18;93212.22;;;26.02
76895;BMP280;65855;42.030;13.078;2023-06-14T09:53:46;93211.03;;;26.09
76895;BMP280;65855;42.030;13.078;2023-06-14T09:56:17;93207.03;;;26.02
76895;BMP280;65855;42.030;13.078;2023-06-14T09:58:44;93209.81;;;24.76
76895;BMP280;65855;42.030;13.078;2023-06-14T10:01:10;93208.91;;;25.94
76895;BMP280;65855;42.030;13.078;2023-06-14T10:03:39;93195.69;;;27.11
76895;BMP280;65855;42.030;13.078;2023-06-14T10:06:05;93192.84;;;26.23
76895;BMP280;65855;42.030;13.078;2023-06-14T10:08:35;93192.03;;;26.76
76895;BMP280;65855;42.030;13.078;2023-06-14T10:11:02;93202.53;;;29.38
76895;BMP280;65855;42.030;13.078;2023-06-14T10:15:58;93197.34;;;26.55
76895;BMP280;65855;42.030;13.078;2023-06-14T10:21:43;93177.00;;;25.64
76895;BMP280;65855;42.030;13.078;2023-06-14T10:24:13;93181.06;;;25.65
76895;BMP280;65855;42.030;13.078;2023-06-14T10:27:00;93184.78;;;26.57
76895;BMP280;65855;42.030;13.078;2023-06-14T10:29:27;93175.19;;;25.61
76895;BMP280;65855;42.030;13.078;2023-06-14T10:32:00;93184.75;;;24.66
76895;BMP280;65855;42.030;13.078;2023-06-14T10:34:28;93171.44;;;26.62
76895;BMP280;65855;42.030;13.078;2023-06-14T10:37:11;93176.72;;;24.27
76895;BMP280;65855;42.030;13.078;2023-06-14T10:39:44;93171.88;;;24.59
76895;BMP280;65855;42.030;13.078;2023-06-14T10:42:12;93172.66;;;23.91
76895;BMP280;65855;42.030;13.078;2023-06-14T10:44:49;93175.25;;;24.22
76895;BMP280;65855;42.030;13.078;2023-06-14T10:47:30;93173.03;;;24.45
76895;BMP280;65855;42.030;13.078;2023-06-14T10:50:10;93163.69;;;25.02
76895;BMP280;65855;42.030;13.078;2023-06-14T10:52:40;93165.56;;;24.88
76895;BMP280;65855;42.030;13.078;2023-06-14T10:55:16;93160.66;;;25.17
76895;BMP280;65855;42.030;13.078;2023-06-14T10:57:43;93156.81;;;24.31
76895;BMP280;65855;42.030;13.078;2023-06-14T11:00:11;93155.00;;;23.90
76895;BMP280;65855;42.030;13.078;2023-06-14T11:02:51;93156.28;;;23.09
76895;BMP280;65855;42.030;13.078;2023-06-14T11:05:27;93156.34;;;23.15
76895;BMP280;65855;42.030;13.078;2023-06-14T11:08:20;93151.16;;;22.35
76895;BMP280;65855;42.030;13.078;2023-06-14T11:10:51;93148.84;;;22.16
76895;BMP280;65855;42.030;13.078;2023-06-14T11:13:18;93153.75;;;21.89
76895;BMP280;65855;42.030;13.078;2023-06-14T11:15:45;93152.41;;;22.02
76895;BMP280;65855;42.030;13.078;2023-06-14T11:18:13;93141.13;;;22.73
76895;BMP280;65855;42.030;13.078;2023-06-14T11:20:39;93141.91;;;22.20
76895;BMP280;65855;42.030;13.078;2023-06-14T11:23:05;93154.94;;;21.20
76895;BMP280;65855;42.030;13.078;2023-06-14T11:25:31;93139.69;;;20.98
76895;BMP280;65855;42.030;13.078;2023-06-14T11:27:57;93150.78;;;21.09
76895;BMP280;65855;42.030;13.078;2023-06-14T11:30:23;93156.16;;;20.97
76895;BMP280;65855;42.030;13.078;2023-06-14T11:32:50;93168.25;;;20.68
76895;BMP280;65855;42.030;13.078;2023-06-14T11:35:16;93160.59;;;20.17
76895;BMP280;65855;42.030;13.078;2023-06-14T11:37:42;93159.91;;;20.20
76895;BMP280;65855;42.030;13.078;2023-06-14T11:40:10;93161.75;;;19.97
76895;BMP280;65855;42.030;13.078;2023-06-14T11:42:37;93161.56;;;19.83
76895;BMP280;65855;42.030;13.078;2023-06-14T11:45:04;93168.31;;;19.95
76895;BMP280;65855;42.030;13.078;2023-06-14T11:47:33;93180.38;;;19.94
76895;BMP280;65855;42.030;13.078;2023-06-14T11:50:01;93173.72;;;19.68
76895;BMP280;65855;42.030;13.078;2023-06-14T11:52:26;93154.31;;;19.67
76895;BMP280;65855;42.030;13.078;2023-06-14T11:54:53;93159.66;;;19.80
76895;BMP280;65855;42.030;13.078;2023-06-14T11:57:18;93151.69;;;19.63
76895;BMP280;65855;42.030;13.078;2023-06-14T11:59:44;93151.63;;;19.60
76895;BMP280;65855;42.030;13.078;2023-06-14T12:02:14;93162.38;;;19.47
76895;BMP280;65855;42.030;13.078;2023-06-14T12:04:43;93173.44;;;19.54
76895;BMP280;65855;42.030;13.078;2023-06-14T12:12:24;93178.69;;;19.61
76895;BMP280;65855;42.030;13.078;2023-06-14T12:14:54;93179.00;;;19.56
76895;BMP280;65855;42.030;13.078;2023-06-14T12:17:20;93188.22;;;19.42
76895;BMP280;65855;42.030;13.078;2023-06-14T12:19:46;93198.34;;;19.16
76895;BMP280;65855;42.030;13.078;2023-06-14T12:22:13;93203.41;;;19.13
76895;BMP280;65855;42.030;13.078;2023-06-14T12:24:39;93200.44;;;19.29
76895;BMP280;65855;42.030;13.078;2023-06-14T12:27:07;93206.88;;;19.42
76895;BMP280;65855;42.030;13.078;2023-06-14T12:29:33;93212.72;;;19.43
76895;BMP280;65855;42.030;13.078;2023-06-14T12:31:58;93208.41;;;19.47
76895;BMP280;65855;42.030;13.078;2023-06-14T12:34:24;93205.78;;;19.43
76895;BMP280;65855;42.030;13.078;2023-06-14T12:36:53;93195.94;;;19.23
76895;BMP280;65855;42.030;13.078;2023-06-14T12:39:20;93199.81;;;19.36
76895;BMP280;65855;42.030;13.078;2023-06-14T12:41:46;93203.97;;;19.84
76895;BMP280;65855;42.030;13.078;2023-06-14T12:44:12;93212.75;;;19.87
76895;BMP280;65855;42.030;13.078;2023-06-14T12:46:37;93206.44;;;20.03
76895;BMP280;65855;42.030;13.078;2023-06-14T12:49:05;93205.22;;;19.72
76895;BMP280;65855;42.030;13.078;2023-06-14T12:51:45;93206.13;;;19.82
76895;BMP280;65855;42.030;13.078;2023-06-14T12:54:10;93212.06;;;19.08
76895;BMP280;65855;42.030;13.078;2023-06-14T12:56:35;93206.47;;;19.22
76895;BMP280;65855;42.030;13.078;2023-06-14T12:59:01;93211.91;;;19.39
76895;BMP280;65855;42.030;13.078;2023-06-14T13:01:27;93217.06;;;18.68
76895;BMP280;65855;42.030;13.078;2023-06-14T13:03:52;93217.44;;;18.51
76895;BMP280;65855;42.030;13.078;2023-06-14T13:06:22;93227.56;;;18.81
76895;BMP280;65855;42.030;13.078;2023-06-14T13:08:48;93233.41;;;18.82
76895;BMP280;65855;42.030;13.078;2023-06-14T13:11:13;93237.22;;;18.88
76895;BMP280;65855;42.030;13.078;2023-06-14T13:13:39;93237.28;;;18.91
76895;BMP280;65855;42.030;13.078;2023-06-14T13:16:04;93235.00;;;19.05
76895;BMP280;65855;42.030;13.078;2023-06-14T13:18:30;93232.63;;;18.97
76895;BMP280;65855;42.030;13.078;2023-06-14T13:20:55;93229.56;;;18.88
76895;BMP280;65855;42.030;13.078;2023-06-14T13:23:21;93237.56;;;18.86
76895;BMP280;65855;42.030;13.078;2023-06-14T13:25:46;93238.03;;;18.92
76895;BMP280;65855;42.030;13.078;2023-06-14T13:28:11;93239.38;;;18.86
76895;BMP280;65855;42.030;13.078;2023-06-14T13:30:37;93240.03;;;18.83
76895;BMP280;65855;42.030;13.078;2023-06-14T13:33:02;93242.06;;;18.59
76895;BMP280;65855;42.030;13.078;2023-06-14T13:35:28;93254.28;;;18.35
76895;BMP280;65855;42.030;13.078;2023-06-14T13:37:53;93257.63;;;18.39
76895;BMP280;65855;42.030;13.078;2023-06-14T13:40:19;93262.69;;;18.35
76895;BMP280;65855;42.030;13.078;2023-06-14T13:42:46;93263.09;;;18.37
76895;BMP280;65855;42.030;13.078;2023-06-14T13:45:12;93262.59;;;18.47
76895;BMP280;65855;42.030;13.078;2023-06-14T13:47:38;93265.47;;;18.46
76895;BMP280;65855;42.030;13.078;2023-06-14T13:50:04;93267.53;;;18.40
76895;BMP280;65855;42.030;13.078;2023-06-14T13:52:30;93259.78;;;18.52
76895;BMP280;65855;42.030;13.078;2023-06-14T13:54:56;93255.56;;;18.44
76895;BMP280;65855;42.030;13.078;2023-06-14T13:57:22;93249.56;;;18.52
76895;BMP280;65855;42.030;13.078;2023-06-14T13:59:47;93249.88;;;18.66
76895;BMP280;65855;42.030;13.078;2023-06-14T14:02:13;93247.84;;;18.41
76895;BMP280;65855;42.030;13.078;2023-06-14T14:04:40;93248.91;;;18.55
76895;BMP280;65855;42.030;13.078;2023-06-14T14:07:06;93248.00;;;18.81